createdAt,value
2018-07-23T00:02:04.344Z,19.40
2018-07-23T00:04:32.838Z,19.40
2018-07-23T00:07:01.702Z,19.40
2018-07-23T00:09:30.219Z,19.40
2018-07-23T00:11:58.720Z,19.40
2018-07-23T00:14:27.251Z,19.40
2018-07-23T00:16:55.723Z,19.40
2018-07-23T00:19:24.265Z,19.30
2018-07-23T00:21:52.778Z,19.30
2018-07-23T00:24:21.278Z,19.30
2018-07-23T00:26:49.796Z,19.20
2018-07-23T00:29:18.341Z,19.20
2018-07-23T00:31:46.850Z,19.10
2018-07-23T00:34:15.375Z,19.10
2018-07-23T00:36:43.903Z,19.10
2018-07-23T00:39:12.418Z,19.10
2018-07-23T00:41:40.900Z,19.10
2018-07-23T00:44:09.403Z,19.00
2018-07-23T00:46:38.238Z,19.00
2018-07-23T00:49:06.847Z,19.00
2018-07-23T00:51:35.329Z,19.00
2018-07-23T00:54:03.874Z,19.00
2018-07-23T00:56:32.722Z,19.00
2018-07-23T00:59:01.222Z,19.00
2018-07-23T01:01:29.705Z,19.00
2018-07-23T01:03:58.214Z,18.90
2018-07-23T01:08:54.898Z,18.90
2018-07-23T01:11:23.403Z,18.90
2018-07-23T01:13:51.882Z,18.90
2018-07-23T01:16:20.379Z,18.90
2018-07-23T01:18:48.890Z,18.90
2018-07-23T01:21:17.548Z,18.90
2018-07-23T01:23:46.027Z,18.90
2018-07-23T01:26:14.531Z,18.80
2018-07-23T01:28:43.075Z,18.80
2018-07-23T01:31:11.569Z,18.80
2018-07-23T01:33:40.051Z,18.80
2018-07-23T01:36:08.563Z,18.80
2018-07-23T01:38:37.022Z,18.70
2018-07-23T01:41:05.587Z,18.80
2018-07-23T01:43:34.369Z,18.80
2018-07-23T01:46:02.854Z,18.80
2018-07-23T01:48:31.328Z,18.80
2018-07-23T01:50:59.823Z,18.80
2018-07-23T01:53:28.301Z,18.80
2018-07-23T01:55:57.190Z,18.80
2018-07-23T01:58:25.694Z,18.90
2018-07-23T02:00:54.242Z,18.90
2018-07-23T02:03:22.731Z,18.90
2018-07-23T02:05:51.231Z,18.90
2018-07-23T02:08:19.752Z,18.90
2018-07-23T02:10:48.288Z,18.90
2018-07-23T02:13:16.774Z,18.90
2018-07-23T02:15:45.271Z,18.90
2018-07-23T02:18:13.781Z,18.90
2018-07-23T02:20:42.450Z,18.90
2018-07-23T02:23:10.982Z,18.90
2018-07-23T02:25:39.469Z,18.90
2018-07-23T02:28:08.304Z,18.80
2018-07-23T02:30:36.823Z,18.70
2018-07-23T02:33:05.796Z,18.60
2018-07-23T02:35:34.856Z,18.60
2018-07-23T02:38:03.359Z,18.50
2018-07-23T02:40:31.930Z,18.40
2018-07-23T02:43:00.473Z,18.40
2018-07-23T02:45:29.164Z,18.40
2018-07-23T02:47:57.983Z,18.40
2018-07-23T02:50:26.492Z,18.30
2018-07-23T02:52:54.977Z,18.20
2018-07-23T02:55:23.498Z,18.20
2018-07-23T03:00:20.171Z,18.20
2018-07-23T03:02:48.649Z,18.10
2018-07-23T03:05:17.159Z,18.10
2018-07-23T03:07:45.695Z,18.10
2018-07-23T03:10:14.204Z,18.00
2018-07-23T03:12:42.731Z,18.00
2018-07-23T03:15:11.234Z,18.00
2018-07-23T03:17:40.112Z,18.00
2018-07-23T03:20:08.686Z,18.00
2018-07-23T03:22:37.210Z,18.00
2018-07-23T03:25:05.702Z,18.00
2018-07-23T03:27:34.215Z,17.90
2018-07-23T03:30:02.744Z,17.90
2018-07-23T03:32:31.243Z,17.80
2018-07-23T03:34:59.767Z,17.80
2018-07-23T03:37:28.263Z,17.80
2018-07-23T03:39:56.811Z,17.80
2018-07-23T03:42:25.372Z,17.80
2018-07-23T03:44:53.845Z,17.80
2018-07-23T03:47:22.338Z,17.70
2018-07-23T03:49:50.852Z,17.70
2018-07-23T03:52:19.370Z,17.70
2018-07-23T03:54:47.882Z,17.70
2018-07-23T03:57:16.387Z,17.60
2018-07-23T03:59:44.888Z,17.60
2018-07-23T04:02:13.430Z,17.60
2018-07-23T04:04:41.944Z,17.60
2018-07-23T04:07:10.438Z,17.60
2018-07-23T04:09:38.928Z,17.60
2018-07-23T04:12:07.454Z,17.60
2018-07-23T04:14:35.915Z,17.60
2018-07-23T04:17:04.799Z,17.70
2018-07-23T04:19:33.850Z,17.70
2018-07-23T04:22:02.390Z,17.70
2018-07-23T04:24:30.881Z,17.70
2018-07-23T04:26:59.408Z,17.60
2018-07-23T04:29:27.898Z,17.60
2018-07-23T04:31:56.419Z,17.60
2018-07-23T04:34:24.892Z,17.70
2018-07-23T04:36:53.388Z,17.70
2018-07-23T04:39:21.890Z,17.60
2018-07-23T04:41:50.420Z,17.70
2018-07-23T04:44:18.895Z,17.70
2018-07-23T04:46:47.423Z,17.80
2018-07-23T04:49:15.954Z,17.80
2018-07-23T04:51:44.640Z,17.80
2018-07-23T04:54:13.118Z,17.80
2018-07-23T04:56:41.636Z,17.80
2018-07-23T04:59:10.288Z,17.80
2018-07-23T05:01:39.151Z,17.80
2018-07-23T05:04:07.637Z,17.80
2018-07-23T05:06:36.131Z,17.80
2018-07-23T05:09:08.361Z,17.80
2018-07-23T05:11:36.907Z,17.80
2018-07-23T05:14:05.537Z,17.70
2018-07-23T05:16:34.075Z,17.70
2018-07-23T05:19:02.708Z,17.80
2018-07-23T05:21:31.176Z,17.80
2018-07-23T05:23:59.692Z,17.90
2018-07-23T05:26:28.819Z,17.90
2018-07-23T05:28:57.290Z,18.00
2018-07-23T05:31:25.787Z,18.10
2018-07-23T05:33:54.271Z,18.20
2018-07-23T05:36:22.770Z,18.20
2018-07-23T05:38:51.262Z,18.30
2018-07-23T05:41:19.724Z,18.40
2018-07-23T05:43:48.251Z,18.40
2018-07-23T05:46:16.783Z,18.50
2018-07-23T05:48:45.293Z,18.60
2018-07-23T05:51:13.750Z,18.70
2018-07-23T05:53:42.266Z,18.80
2018-07-23T05:56:10.751Z,18.90
2018-07-23T05:58:39.455Z,19.00
2018-07-23T06:01:07.962Z,19.10
2018-07-23T06:03:36.519Z,19.30
2018-07-23T06:06:05.200Z,19.40
2018-07-23T06:08:33.743Z,19.70
2018-07-23T06:11:02.295Z,19.90
2018-07-23T06:15:59.231Z,20.90
2018-07-23T06:18:27.770Z,21.50
2018-07-23T06:20:56.267Z,22.30
2018-07-23T06:23:24.773Z,23.90
2018-07-23T06:25:53.599Z,27.00
2018-07-23T06:28:22.205Z,28.90
2018-07-23T06:30:50.731Z,31.50
2018-07-23T06:33:19.279Z,33.50
2018-07-23T06:35:47.758Z,33.90
2018-07-23T06:38:16.367Z,35.00
2018-07-23T06:40:44.859Z,36.30
2018-07-23T06:43:13.375Z,36.10
2018-07-23T06:48:11.415Z,36.90
2018-07-23T06:50:40.475Z,36.90
2018-07-23T06:53:09.559Z,37.30
2018-07-23T06:55:38.647Z,37.80
2018-07-23T06:58:08.348Z,37.50
2018-07-23T07:00:37.619Z,38.00
2018-07-23T07:03:07.350Z,37.70
2018-07-23T07:05:36.495Z,37.30
2018-07-23T07:08:05.886Z,36.40
2018-07-23T07:10:34.996Z,36.80
2018-07-23T07:13:04.167Z,36.70
2018-07-23T07:15:33.231Z,36.50
2018-07-23T07:18:02.282Z,35.40
2018-07-23T07:20:31.382Z,33.60
2018-07-23T07:23:00.423Z,31.50
2018-07-23T07:25:29.569Z,29.90
2018-07-23T07:27:58.824Z,29.10
2018-07-23T07:30:27.927Z,28.20
2018-07-23T07:32:57.425Z,27.10
2018-07-23T07:35:25.954Z,26.90
2018-07-23T07:37:54.575Z,26.50
2018-07-23T07:40:23.283Z,26.40
2018-07-23T07:42:51.792Z,26.40
2018-07-23T07:45:20.392Z,26.30
2018-07-23T07:47:48.895Z,26.30
2018-07-23T07:50:18.444Z,26.60
2018-07-23T07:52:47.001Z,26.70
2018-07-23T07:55:15.525Z,26.60
2018-07-23T07:57:44.026Z,26.50
2018-07-23T08:00:12.547Z,27.20
2018-07-23T08:02:41.038Z,27.60
2018-07-23T08:05:09.644Z,28.00
2018-07-23T08:07:38.741Z,29.20
2018-07-23T08:10:07.835Z,30.30
2018-07-23T08:12:36.964Z,31.10
2018-07-23T08:15:06.616Z,31.80
2018-07-23T08:17:35.738Z,31.80
2018-07-23T08:20:05.320Z,32.00
2018-07-23T08:22:34.618Z,32.60
2018-07-23T08:25:03.822Z,32.70
2018-07-23T08:27:33.128Z,32.50
2018-07-23T08:30:02.597Z,32.30
2018-07-23T08:32:31.659Z,32.00
2018-07-23T08:35:00.737Z,32.30
2018-07-23T08:37:29.808Z,32.30
2018-07-23T08:39:58.947Z,31.60
2018-07-23T08:42:28.133Z,31.30
2018-07-23T08:44:57.221Z,31.10
2018-07-23T08:47:26.275Z,30.50
2018-07-23T08:49:55.708Z,30.00
2018-07-23T08:52:24.818Z,29.60
2018-07-23T08:54:53.920Z,29.30
2018-07-23T08:57:23.046Z,28.80
2018-07-23T08:59:52.282Z,28.80
2018-07-23T09:02:21.437Z,28.70
2018-07-23T09:04:50.664Z,28.30
2018-07-23T09:07:19.712Z,28.40
2018-07-23T09:09:48.839Z,28.30
2018-07-23T09:12:17.899Z,28.10
2018-07-23T09:14:46.958Z,28.10
2018-07-23T09:17:15.529Z,27.80
2018-07-23T09:19:44.180Z,27.80
2018-07-23T09:22:12.721Z,27.70
2018-07-23T09:24:41.859Z,27.40
2018-07-23T09:27:10.360Z,27.30
2018-07-23T09:29:38.877Z,27.50
2018-07-23T09:32:07.362Z,27.30
2018-07-23T09:34:35.870Z,27.30
2018-07-23T09:37:04.425Z,27.20
2018-07-23T09:39:33.198Z,27.00
2018-07-23T09:42:01.671Z,27.00
2018-07-23T09:44:30.189Z,26.80
2018-07-23T09:46:58.695Z,27.00
2018-07-23T09:49:27.205Z,27.20
2018-07-23T09:51:56.085Z,27.40
2018-07-23T09:54:24.930Z,27.50
2018-07-23T09:56:53.698Z,27.50
2018-07-23T09:59:22.175Z,27.50
2018-07-23T10:01:51.055Z,27.50
2018-07-23T10:04:19.531Z,27.50
2018-07-23T10:06:48.037Z,27.50
2018-07-23T10:12:15.428Z,27.40
2018-07-23T10:14:43.909Z,27.30
2018-07-23T10:17:12.379Z,27.30
2018-07-23T10:19:40.856Z,27.30
2018-07-23T10:22:09.411Z,27.20
2018-07-23T10:24:37.947Z,27.40
2018-07-23T10:27:06.490Z,27.50
2018-07-23T10:29:35.035Z,27.70
2018-07-23T10:32:03.711Z,27.50
2018-07-23T10:34:32.194Z,27.50
2018-07-23T10:37:00.708Z,27.50
2018-07-23T10:39:29.212Z,27.60
2018-07-23T10:41:57.698Z,27.60
2018-07-23T10:44:26.186Z,27.80
2018-07-23T10:46:55.029Z,28.00
2018-07-23T10:49:23.508Z,28.00
2018-07-23T10:51:52.011Z,28.00
2018-07-23T10:54:20.518Z,28.00
2018-07-23T10:56:49.059Z,27.90
2018-07-23T10:59:17.579Z,28.00
2018-07-23T11:01:46.112Z,27.90
2018-07-23T11:04:14.641Z,27.80
2018-07-23T11:06:43.681Z,27.80
2018-07-23T11:09:12.140Z,27.80
2018-07-23T11:11:40.688Z,27.90
2018-07-23T11:14:09.206Z,27.80
2018-07-23T11:16:37.754Z,27.80
2018-07-23T11:19:06.350Z,27.70
2018-07-23T11:21:34.867Z,27.70
2018-07-23T11:24:06.854Z,27.70
2018-07-23T11:26:35.896Z,27.80
2018-07-23T11:29:04.555Z,27.90
2018-07-23T11:31:33.102Z,28.00
2018-07-23T11:34:01.595Z,28.00
2018-07-23T11:36:32.449Z,28.00
2018-07-23T11:39:01.491Z,28.00
2018-07-23T11:41:30.096Z,28.00
2018-07-23T11:43:58.695Z,27.90
2018-07-23T11:46:27.195Z,27.80
2018-07-23T11:48:55.683Z,27.70
2018-07-23T11:51:24.178Z,27.70
2018-07-23T11:53:52.696Z,27.80
2018-07-23T11:56:21.390Z,27.90
2018-07-23T11:58:49.900Z,28.00
2018-07-23T12:01:22.445Z,28.20
2018-07-23T12:03:51.733Z,28.20
2018-07-23T12:06:20.651Z,28.30
2018-07-23T12:08:49.602Z,28.40
2018-07-23T12:11:18.142Z,28.50
2018-07-23T12:13:46.647Z,28.50
2018-07-23T12:16:15.183Z,28.50
2018-07-23T12:18:43.662Z,28.50
2018-07-23T12:21:12.206Z,28.50
2018-07-23T12:23:40.682Z,28.50
2018-07-23T12:26:09.269Z,28.50
2018-07-23T12:28:37.920Z,28.60
2018-07-23T12:31:06.415Z,28.60
2018-07-23T12:33:34.949Z,28.60
2018-07-23T12:36:03.805Z,28.60
2018-07-23T12:38:32.335Z,28.30
2018-07-23T12:41:00.818Z,28.30
2018-07-23T12:43:29.343Z,28.40
2018-07-23T12:45:57.863Z,28.30
2018-07-23T12:48:26.730Z,28.20
2018-07-23T12:50:55.215Z,28.10
2018-07-23T12:53:23.766Z,28.00
2018-07-23T12:55:52.430Z,28.10
2018-07-23T12:58:20.974Z,28.00
2018-07-23T13:03:17.693Z,27.80
2018-07-23T13:05:46.226Z,27.60
2018-07-23T13:08:14.827Z,27.60
2018-07-23T13:10:43.784Z,27.70
2018-07-23T13:13:12.408Z,27.80
2018-07-23T13:15:40.919Z,28.00
2018-07-23T13:18:09.431Z,28.00
2018-07-23T13:20:37.947Z,28.00
2018-07-23T13:23:06.475Z,27.90
2018-07-23T13:25:35.009Z,27.90
2018-07-23T13:28:05.951Z,27.80
2018-07-23T13:30:36.043Z,27.90
2018-07-23T13:33:08.964Z,27.80
2018-07-23T13:35:39.972Z,27.80
2018-07-23T13:38:08.777Z,27.80
2018-07-23T13:40:37.423Z,27.90
2018-07-23T13:43:07.735Z,28.00
2018-07-23T13:45:36.725Z,28.00
2018-07-23T13:48:08.506Z,28.10
2018-07-23T13:50:37.368Z,28.00
2018-07-23T13:53:05.898Z,28.00
2018-07-23T13:55:34.395Z,27.90
2018-07-23T13:58:02.927Z,28.00
2018-07-23T14:00:31.392Z,28.00
2018-07-23T14:02:59.922Z,28.10
2018-07-23T14:05:28.446Z,28.00
2018-07-23T14:07:56.996Z,28.10
2018-07-23T14:10:25.499Z,28.10
2018-07-23T14:12:54.028Z,28.00
2018-07-23T14:15:22.548Z,28.00
2018-07-23T14:17:51.045Z,28.00
2018-07-23T14:20:19.564Z,28.00
2018-07-23T14:22:48.102Z,27.90
2018-07-23T14:25:16.602Z,28.00
2018-07-23T14:27:45.113Z,28.00
2018-07-23T14:30:13.628Z,28.00
2018-07-23T14:32:42.301Z,28.00
2018-07-23T14:35:10.806Z,28.00
2018-07-23T14:37:39.373Z,28.10
2018-07-23T14:40:21.696Z,28.10
2018-07-23T14:42:58.391Z,28.10
2018-07-23T14:45:27.015Z,28.10
2018-07-23T14:47:57.835Z,28.00
2018-07-23T14:50:43.323Z,28.10
2018-07-23T14:53:12.866Z,28.10
2018-07-23T14:55:42.964Z,28.30
2018-07-23T14:58:11.581Z,28.30
2018-07-23T15:00:40.073Z,28.30
2018-07-23T15:03:08.578Z,28.20
2018-07-23T15:08:05.611Z,28.20
2018-07-23T15:10:34.111Z,28.20
2018-07-23T15:13:02.641Z,28.20
2018-07-23T15:15:31.123Z,28.20
2018-07-23T15:17:59.608Z,28.20
2018-07-23T15:20:28.143Z,28.20
2018-07-23T15:22:56.622Z,28.20
2018-07-23T15:25:25.116Z,28.20
2018-07-23T15:27:53.696Z,28.30
2018-07-23T15:30:22.224Z,28.30
2018-07-23T15:32:50.704Z,28.30
2018-07-23T15:35:19.228Z,28.30
2018-07-23T15:37:47.766Z,28.20
2018-07-23T15:40:16.663Z,28.20
2018-07-23T15:42:45.195Z,28.30
2018-07-23T15:45:13.986Z,28.30
2018-07-23T15:47:42.727Z,28.30
2018-07-23T15:50:11.262Z,28.20
2018-07-23T15:52:39.766Z,28.20
2018-07-23T15:55:08.484Z,28.10
2018-07-23T15:57:36.955Z,28.10
2018-07-23T16:00:07.007Z,28.10
2018-07-23T16:02:35.728Z,28.10
2018-07-23T16:05:04.642Z,28.10
2018-07-23T16:07:33.555Z,28.10
2018-07-23T16:10:02.948Z,28.10
2018-07-23T16:12:31.441Z,28.10
2018-07-23T16:14:59.950Z,28.10
2018-07-23T16:17:28.431Z,28.10
2018-07-23T16:19:57.061Z,28.10
2018-07-23T16:22:25.559Z,28.10
2018-07-23T16:24:54.050Z,28.10
2018-07-23T16:27:22.610Z,28.10
2018-07-23T16:29:51.120Z,28.10
2018-07-23T16:32:19.967Z,28.20
2018-07-23T16:34:48.534Z,28.30
2018-07-23T16:37:17.030Z,28.20
2018-07-23T16:39:45.557Z,28.10
2018-07-23T16:42:14.066Z,28.00
2018-07-23T16:44:42.610Z,28.00
2018-07-23T16:47:11.112Z,27.90
2018-07-23T16:49:39.606Z,27.90
2018-07-23T16:52:11.770Z,27.90
2018-07-23T16:54:47.157Z,27.90
2018-07-23T16:57:15.729Z,27.90
2018-07-23T16:59:44.323Z,27.90
2018-07-23T17:02:12.884Z,27.90
2018-07-23T17:04:41.660Z,27.90
2018-07-23T17:07:10.632Z,27.80
2018-07-23T17:09:39.511Z,27.80
2018-07-23T17:12:08.330Z,27.70
2018-07-23T17:14:36.856Z,27.70
2018-07-23T17:17:05.367Z,27.60
2018-07-23T17:19:33.891Z,27.60
2018-07-23T17:22:02.409Z,27.60
2018-07-23T17:24:32.249Z,27.60
2018-07-23T17:27:00.739Z,27.50
2018-07-23T17:29:29.245Z,27.50
2018-07-23T17:31:57.755Z,27.30
2018-07-23T17:34:26.261Z,27.20
2018-07-23T17:36:54.776Z,27.20
2018-07-23T17:39:23.272Z,27.10
2018-07-23T17:41:51.778Z,27.00
2018-07-23T17:44:20.334Z,26.90
2018-07-23T17:46:48.911Z,26.90
2018-07-23T17:49:17.411Z,26.80
2018-07-23T17:51:47.844Z,26.70
2018-07-23T17:54:19.058Z,26.70
2018-07-23T17:56:47.661Z,26.60
2018-07-23T17:59:18.236Z,26.50
2018-07-23T18:01:48.522Z,26.50
2018-07-23T18:04:19.467Z,26.40
2018-07-23T18:06:48.035Z,26.40
2018-07-23T18:09:16.874Z,26.40
2018-07-23T18:11:45.390Z,26.30
2018-07-23T18:14:13.909Z,26.20
2018-07-23T18:16:42.426Z,26.20
2018-07-23T18:19:10.948Z,26.10
2018-07-23T18:21:39.453Z,26.00
2018-07-23T18:24:07.943Z,26.00
2018-07-23T18:26:36.445Z,25.90
2018-07-23T18:29:05.059Z,25.80
2018-07-23T18:31:33.587Z,25.80
2018-07-23T18:34:02.095Z,25.70
2018-07-23T18:36:30.632Z,25.70
2018-07-23T18:38:59.245Z,25.60
2018-07-23T18:41:28.672Z,25.50
2018-07-23T18:43:57.202Z,25.50
2018-07-23T18:46:27.212Z,25.40
2018-07-23T18:49:33.961Z,25.30
2018-07-23T18:52:02.966Z,25.20
2018-07-23T18:54:32.410Z,25.10
2018-07-23T18:57:02.107Z,25.00
2018-07-23T18:59:31.002Z,25.00
2018-07-23T19:02:02.493Z,24.90
2018-07-23T19:04:31.366Z,24.80
2018-07-23T19:07:00.634Z,24.70
2018-07-23T19:09:29.766Z,24.60
2018-07-23T19:11:59.103Z,24.60
2018-07-23T19:14:27.719Z,24.50
2018-07-23T19:16:57.274Z,24.40
2018-07-23T19:19:26.093Z,24.40
2018-07-23T19:21:55.346Z,24.30
2018-07-23T19:24:24.298Z,24.20
2018-07-23T19:26:52.850Z,24.20
2018-07-23T19:29:21.757Z,24.10
2018-07-23T19:31:50.289Z,24.00
2018-07-23T19:34:19.485Z,23.90
2018-07-23T19:36:48.543Z,23.80
2018-07-23T19:39:18.532Z,23.70
2018-07-23T19:41:47.061Z,23.70
2018-07-23T19:44:15.724Z,23.60
2018-07-23T19:46:44.775Z,23.50
2018-07-23T19:49:13.318Z,23.50
2018-07-23T19:51:41.983Z,23.40
2018-07-23T19:54:10.954Z,23.30
2018-07-23T19:56:39.490Z,23.30
2018-07-23T19:59:08.047Z,23.20
2018-07-23T20:01:36.570Z,23.30
2018-07-23T20:04:05.199Z,23.20
2018-07-23T20:06:33.739Z,23.20
2018-07-23T20:09:02.749Z,23.10
2018-07-23T20:11:32.097Z,23.00
2018-07-23T20:14:00.618Z,23.00
2018-07-23T20:16:30.650Z,23.00
2018-07-23T20:18:59.660Z,22.90
2018-07-23T20:21:28.806Z,22.90
2018-07-23T20:23:57.574Z,22.80
2018-07-23T20:26:26.769Z,22.80
2018-07-23T20:28:55.275Z,22.80
2018-07-23T20:31:23.775Z,22.70
2018-07-23T20:33:52.258Z,22.70
2018-07-23T20:36:21.517Z,22.60
2018-07-23T20:38:50.018Z,22.60
2018-07-23T20:41:18.729Z,22.60
2018-07-23T20:43:47.195Z,22.50
2018-07-23T20:46:15.750Z,22.50
2018-07-23T20:48:44.291Z,22.40
2018-07-23T20:51:12.901Z,22.40
2018-07-23T20:53:41.438Z,22.40
2018-07-23T20:56:09.971Z,22.30
2018-07-23T20:58:38.648Z,22.20
2018-07-23T21:01:07.580Z,22.20
2018-07-23T21:03:36.106Z,22.20
2018-07-23T21:06:06.192Z,22.10
2018-07-23T21:08:34.795Z,22.10
2018-07-23T21:11:03.439Z,22.10
2018-07-23T21:13:31.927Z,22.10
2018-07-23T21:16:02.016Z,22.00
2018-07-23T21:18:31.381Z,22.00
2018-07-23T21:21:02.465Z,22.00
2018-07-23T21:23:32.062Z,21.90
2018-07-23T21:26:01.849Z,21.90
2018-07-23T21:28:30.351Z,21.80
2018-07-23T21:33:28.594Z,21.70
2018-07-23T21:35:57.695Z,21.70
2018-07-23T21:38:26.414Z,21.60
2018-07-23T21:40:55.775Z,21.60
2018-07-23T21:43:24.636Z,21.50
2018-07-23T21:45:56.548Z,21.50
2018-07-23T21:48:25.130Z,21.40
2018-07-23T21:50:53.965Z,21.40
2018-07-23T21:53:24.004Z,21.40
2018-07-23T21:55:56.480Z,21.30
2018-07-23T21:58:28.488Z,21.30
2018-07-23T22:00:58.204Z,21.30
2018-07-23T22:03:26.781Z,21.30
2018-07-23T22:05:55.323Z,21.20
2018-07-23T22:08:24.055Z,21.20
2018-07-23T22:10:56.187Z,21.20
2018-07-23T22:13:25.037Z,21.20
2018-07-23T22:15:53.948Z,21.20
2018-07-23T22:18:23.589Z,21.10
2018-07-23T22:20:52.170Z,21.10
2018-07-23T22:23:21.877Z,21.00
2018-07-23T22:25:50.903Z,21.00
2018-07-23T22:28:20.757Z,20.90
2018-07-23T22:30:49.851Z,20.90
2018-07-23T22:33:18.611Z,20.80
2018-07-23T22:35:47.400Z,20.80
2018-07-23T22:38:16.170Z,20.80
2018-07-23T22:40:46.170Z,20.80
2018-07-23T22:43:14.917Z,20.70
2018-07-23T22:45:43.509Z,20.70
2018-07-23T22:48:12.313Z,20.70
2018-07-23T22:50:41.059Z,20.70
2018-07-23T22:53:09.724Z,20.70
2018-07-23T22:55:38.442Z,20.70
2018-07-23T22:58:07.167Z,20.60
2018-07-23T23:00:35.906Z,20.60
2018-07-23T23:03:04.668Z,20.60
2018-07-23T23:05:35.625Z,20.60
2018-07-23T23:08:05.642Z,20.60
2018-07-23T23:10:35.665Z,20.60
2018-07-23T23:13:05.520Z,20.60
2018-07-23T23:15:35.140Z,20.60
2018-07-23T23:18:07.362Z,20.60
2018-07-23T23:20:50.277Z,20.60
2018-07-23T23:23:20.437Z,20.60
2018-07-23T23:25:55.301Z,20.50
2018-07-23T23:28:25.432Z,20.50
2018-07-23T23:30:56.713Z,20.40
2018-07-23T23:33:28.757Z,20.40
2018-07-23T23:36:02.547Z,20.40
2018-07-23T23:38:38.389Z,20.30
2018-07-23T23:41:07.016Z,20.30
2018-07-23T23:43:35.538Z,20.20
2018-07-23T23:46:04.023Z,20.20
2018-07-23T23:48:32.559Z,20.20
2018-07-23T23:51:01.040Z,20.20
2018-07-23T23:53:29.717Z,20.10
2018-07-23T23:55:58.304Z,20.00
2018-07-23T23:58:29.044Z,20.00
